Flight Track Log - Related Links

Times and Time Zones

All times are in EDT time to prevent confusion due to time zone crossing. See the CTL18 flight status page for this flight to view local times or setup timezone preferences in your user account.

Time Position Orientation Groundspeed Altitude Reporting Facility
EDT Latitude Longitude Course Direction KTS MPH feet Rate Location/Type
Wed 09:51:10 PM 42.2258 -83.5528 220° Southwest 105 121 1,400  Level Cleveland Center
Wed 09:52:10 PM 42.2022 -83.5797 220° Southwest 109 125 2,300 843 Climbing Cleveland Center
Wed 09:53:11 PM 42.1786 -83.6094 223° Southwest 119 137 3,100 393 Climbing Cleveland Center
Wed 09:54:12 PM 42.1386 -83.6242 195° South 167 192 3,100  Level Cleveland Center
Wed 09:55:13 PM 42.0883 -83.6303 185° South 173 199 3,100 -49 Level Cleveland Center
Wed 09:56:14 PM 42.0425 -83.6336 183° South 172 198 3,000 49 Descending Cleveland Center
Wed 09:57:15 PM 42.0017 -83.5981 147° Southeast 194 223 3,200  Climbing Cleveland Center
Wed 09:58:09 PM 41.9825 -83.5358 112° Southeast 196 226 3,000 -104 Descending Cleveland Center
Wed 09:59:10 PM 41.9675 -83.4653 106° East 197 227 3,000  Level Cleveland Center
Wed 10:00:05 PM 41.9483 -83.4031 112° Southeast 198 228 3,000 259 Level Cleveland Center
Wed 10:01:06 PM 41.9311 -83.3381 110° East 177 204 3,500 347 Climbing Cleveland Center
Wed 10:02:06 PM 41.9158 -83.2761 108° East 179 206 3,700 446 Climbing Cleveland Center
Wed 10:03:07 PM 41.9008 -83.2083 107° East 172 198 4,400 582 Climbing Cleveland Center
Wed 10:04:20 PM 41.8833 -83.1408 109° East 166 191 5,000 281 Climbing Cleveland Center
Wed 10:05:15 PM 41.8681 -83.0817 109° East 185 213 5,000  Level Cleveland Center
Wed 10:06:15 PM 41.8486 -83.0167 112° Southeast 189 217 5,000  Level Cleveland Center
Wed 10:07:16 PM 41.8333 -82.9519 108° East 188 216 5,000 77 Level Cleveland Center
Wed 10:07:33 PM 41.8233 -82.9350 128° Southeast 188 216 5,100 154 Climbing Cleveland Center
Wed 10:08:34 PM 41.8081 -82.8647 106° East 186 214 5,200  Climbing Cleveland Center
Wed 10:09:34 PM 41.7906 -82.8028 111° Southeast 183 211 5,100  Descending Cleveland Center
Wed 10:10:35 PM 41.7731 -82.7353 109° East 184 212 5,200 52 Climbing Cleveland Center
Wed 10:11:29 PM 41.7617 -82.6739 104° East 184 212 5,200 -52 Level Cleveland Center
Wed 10:12:30 PM 41.7503 -82.6067 103° East 187 215 5,100  Descending Cleveland Center
Wed 10:13:31 PM 41.7369 -82.5394 105° East 185 213 5,200 47 Climbing Cleveland Center
Wed 10:14:37 PM 41.7214 -82.4694 107° East 187 215 5,200 -47 Level Cleveland Center
Wed 10:15:38 PM 41.7081 -82.3967 104° East 193 222 5,100  Descending Cleveland Center
Wed 10:16:39 PM 41.6944 -82.3267 105° East 193 222 5,200 55 Climbing Cleveland Center
Wed 10:17:27 PM 41.6828 -82.2708 106° East 192 221 5,200 -313 Level Cleveland Center
Wed 10:18:34 PM 41.6694 -82.1925 103° East 201 231 4,600 -451 Descending Cleveland Center
Wed 10:19:40 PM 41.6558 -82.1061 102° East 211 243 4,200 -446 Descending Cleveland Center
Wed 10:20:35 PM 41.6525 -82.0394 94° East 205 236 3,700 -491 Descending Cleveland Center
Wed 10:21:30 PM 41.6533 -81.9728 89° East 206 237 3,300 -385 Descending Cleveland Center
Wed 10:22:24 PM 41.6458 -81.9031 98° East 202 232 3,000 -313 Descending Cleveland Center
Wed 10:23:25 PM 41.6175 -81.8414 122° Southeast 191 220 2,700 -331 Descending Cleveland Center
Wed 10:24:31 PM 41.5911 -81.7742 118° Southeast 186 214 2,300 -347 Descending Cleveland Center
Wed 10:25:26 PM 41.5667 -81.7239 123° Southeast 179 206 2,000 -443 Descending Cleveland Center
Wed 10:26:33 PM 41.5378 -81.6706 126° Southeast 141 162 1,400 -537 Descending Cleveland Center
Wed 10:28:00 PM 41.5167 -81.6667 108° East  Level FlightAware Approximate
Wed 10:35:00 PM 41.5175 -81.6833 108° East  Level Estimated

Login

Don't have an account? Register now (free) for customized features, flight alerts, and more!